Huvudsida
METAR-TAF:

METAR-TAF

Flygplatser :

Småland Airport

Växjö, Sverige

latitud: 56-51N, longitud: 014-50E, höjd: 199 m

Aktuellt väderrapport

Denna rapport gjordes för 11 minuter sedan, klockan 03:50 UTC
Vind 9 kt från syd/sydväst
Temperatur 1°C
Fuktighet 93%
Tryck 1021 hPa
Sikt 10 km eller mer

METAR: ESMX 160350Z AUTO 21009KT 9999 NCD 01/M00 Q1021

Tid: 05:01 (04:01 UTC)

Väderprognos

Denna rapport gjordes för 10 timmar och 31 minuter sedan, klockan 17:30 UTC
Prognos gäller från 15 kl. 18 UTC till 15 kl. 22 UTC
Vind 5 kt från sydväst
Sikt 10 km eller mer
Inga moln under 1 500 m eller inga cumulonimbus

TAF: ESMX 151730Z 1518/1522 22005KT CAVOK

Aktuella väderrapporter och prognoser från 4000 flygplatser (METAR- och TAF-rapporter).

De tillgängliga stationerna syns som gula och röda prickar på kartan.

För musen över prickarna för att se namnen på stationerna.

Klicka sedan för att få väderrapporter och prognoser.

För att ändra kartan: Klicka på de gröna knapparna med ett svart kors på för att zooma in; den gröna knappen med ett streck på för att zooma ut; eller på de gröna pilarna för angränsande kartor.


METAR-TAF: